Time,TemperatureF,DewpointF,PressureIn,WindDirection,WindDirectionDegrees,WindSpeedMPH,WindSpeedGustMPH,Humidity,HourlyPrecipIn,Conditions,Clouds,dailyrainin,SoftwareType,DateUTC
2013-07-11 00:00:00,72.9,69.4,30.11,WNW,292,2.0,2.0,89,0.00,RA,OVC,0.00,WeatherDisplay:10.37,2013-07-11 04:00:00,
2013-07-11 00:15:00,73.0,69.6,30.10,North,0,0.0,2.0,89,0.00,-RA,OVC,0.00,WeatherDisplay:10.37,2013-07-11 04:15:00,
2013-07-11 00:30:00,73.0,69.6,30.10,NNE,22,0.0,0.0,89,0.00,-RA,OVC,0.00,WeatherDisplay:10.37,2013-07-11 04:30:00,
2013-07-11 00:45:00,72.9,69.8,30.09,ENE,78,0.0,1.0,90,0.01,-RA,OVC,0.01,WeatherDisplay:10.37,2013-07-11 04:45:00,
2013-07-11 01:00:00,72.9,69.8,30.08,East,90,1.0,2.0,90,0.01,-RA,OVC,0.02,WeatherDisplay:10.37,2013-07-11 05:00:00,
2013-07-11 01:15:00,72.9,69.8,30.08,East,90,2.0,2.0,90,0.00,-RA,OVC,0.02,WeatherDisplay:10.37,2013-07-11 05:15:00,
2013-07-11 01:30:00,72.7,69.9,30.07,East,84,1.0,5.0,91,0.00,-RA,OVC,0.02,WeatherDisplay:10.37,2013-07-11 05:30:00,
2013-07-11 01:45:00,72.5,69.7,30.08,East,91,2.0,5.0,91,0.00,-RA,OVC,0.02,WeatherDisplay:10.37,2013-07-11 05:45:00,
2013-07-11 02:00:00,72.5,69.7,30.07,East,82,1.0,5.0,91,0.00,-RA,OVC,0.02,WeatherDisplay:10.37,2013-07-11 06:00:00,
2013-07-11 02:15:00,72.7,69.9,30.07,ENE,63,1.0,2.0,91,0.00,BKN,OVC,0.02,WeatherDisplay:10.37,2013-07-11 06:15:00,
2013-07-11 02:30:00,72.9,70.1,30.07,ENE,78,2.0,3.0,91,0.00,BKN,OVC,0.02,WeatherDisplay:10.37,2013-07-11 06:30:00,
2013-07-11 02:45:00,73.0,70.3,30.07,East,87,1.0,2.0,91,0.00,BKN,OVC,0.02,WeatherDisplay:10.37,2013-07-11 06:45:00,
2013-07-11 03:00:00,73.2,70.8,30.07,East,97,1.0,5.0,92,0.00,BKN,OVC,0.02,WeatherDisplay:10.37,2013-07-11 07:00:00,
2013-07-11 03:15:00,73.4,70.9,30.07,ENE,74,1.0,1.0,92,0.00,BKN,OVC,0.02,WeatherDisplay:10.37,2013-07-11 07:15:00,
2013-07-11 03:30:00,73.2,70.8,30.07,SE,144,0.0,2.0,92,0.00,BKN,OVC,0.02,WeatherDisplay:10.37,2013-07-11 07:30:00,
2013-07-11 03:45:00,73.2,70.7,30.07,East,95,1.0,2.0,92,0.00,BKN,OVC,0.02,WeatherDisplay:10.37,2013-07-11 07:45:00,
2013-07-11 04:00:00,73.2,70.7,30.08,NNE,16,0.0,2.0,92,0.00,BKN,OVC,0.02,WeatherDisplay:10.37,2013-07-11 08:00:00,
2013-07-11 04:15:00,73.2,70.8,30.08,NE,53,0.0,1.0,92,0.00,OVC,OVC,0.02,WeatherDisplay:10.37,2013-07-11 08:15:00,
2013-07-11 04:30:00,73.2,70.7,30.09,NNW,336,0.0,2.0,92,0.00,OVC,OVC,0.02,WeatherDisplay:10.37,2013-07-11 08:30:00,
2013-07-11 04:45:00,73.0,70.3,30.08,NNW,344,1.0,2.0,91,0.00,OVC,OVC,0.02,WeatherDisplay:10.37,2013-07-11 08:45:00,
2013-07-11 05:00:00,72.9,70.1,30.08,NW,306,1.0,1.0,91,0.00,OVC,OVC,0.02,WeatherDisplay:10.37,2013-07-11 09:00:00,
2013-07-11 05:15:00,72.7,69.9,30.08,WNW,296,0.0,1.0,91,0.00,OVC,OVC,0.02,WeatherDisplay:10.37,2013-07-11 09:15:00,
2013-07-11 05:30:00,72.6,69.9,30.08,ENE,75,0.0,2.0,91,0.00,OVC,OVC,0.02,WeatherDisplay:10.37,2013-07-11 09:30:00,
2013-07-11 05:45:00,72.7,69.9,30.08,ENE,74,0.0,1.0,91,0.00,OVC,OVC,0.02,WeatherDisplay:10.37,2013-07-11 09:45:00,
2013-07-11 06:00:00,72.7,69.9,30.09,East,80,0.0,2.0,91,0.00,OVC,OVC,0.02,WeatherDisplay:10.37,2013-07-11 10:00:00,
2013-07-11 06:30:00,72.4,69.6,30.09,East,90,2.0,3.0,91,0.00,BKN,OVC,0.02,WeatherDisplay:10.37,2013-07-11 10:30:00,
2013-07-11 06:45:00,72.3,69.5,30.09,ESE,108,0.0,3.0,91,0.00,BKN,OVC,0.02,WeatherDisplay:10.37,2013-07-11 10:45:00,
2013-07-11 07:00:00,72.3,69.5,30.10,East,86,0.0,2.0,91,0.00,BKN,OVC,0.02,WeatherDisplay:10.37,2013-07-11 11:00:00,
2013-07-11 07:15:00,72.3,69.5,30.10,ENE,68,0.0,0.0,91,0.00,OVC,OVC,0.02,WeatherDisplay:10.37,2013-07-11 11:15:00,
2013-07-11 07:30:00,72.3,69.5,30.10,East,95,0.0,2.0,91,0.00,OVC,OVC,0.02,WeatherDisplay:10.37,2013-07-11 11:30:00,
2013-07-11 07:45:00,72.8,70.3,30.10,East,80,1.0,2.0,92,0.00,OVC,OVC,0.02,WeatherDisplay:10.37,2013-07-11 11:45:00,
2013-07-11 08:00:00,73.2,70.8,30.10,East,86,0.0,2.0,92,0.00,OVC,OVC,0.02,WeatherDisplay:10.37,2013-07-11 12:00:00,
2013-07-11 08:15:00,73.4,70.9,30.10,WNW,291,0.0,2.0,92,0.00,OVC,OVC,0.02,WeatherDisplay:10.37,2013-07-11 12:15:00,
2013-07-11 08:30:00,73.7,71.3,30.10,East,88,0.0,2.0,92,0.00,OVC,OVC,0.02,WeatherDisplay:10.37,2013-07-11 12:30:00,
2013-07-11 08:45:00,73.9,71.5,30.10,WNW,291,1.0,3.0,92,0.00,OVC,OVC,0.02,WeatherDisplay:10.37,2013-07-11 12:45:00,
2013-07-11 09:00:00,74.3,71.8,30.10,WNW,284,1.0,2.0,92,0.00,OVC,OVC,0.02,WeatherDisplay:10.37,2013-07-11 13:00:00,
2013-07-11 09:15:00,74.3,71.5,30.10,SE,142,0.0,1.0,91,0.00,OVC,OVC,0.02,WeatherDisplay:10.37,2013-07-11 13:15:00,
2013-07-11 09:30:00,74.5,71.7,30.10,West,269,0.0,1.0,91,0.00,OVC,OVC,0.02,WeatherDisplay:10.37,2013-07-11 13:30:00,
2013-07-11 09:45:00,74.5,71.7,30.10,NNE,17,0.0,1.0,91,0.00,OVC,OVC,0.02,WeatherDisplay:10.37,2013-07-11 13:45:00,
2013-07-11 10:00:00,74.8,72.0,30.10,NW,308,2.0,2.0,91,0.00,OVC,OVC,0.02,WeatherDisplay:10.37,2013-07-11 14:00:00,
2013-07-11 10:15:00,74.8,72.0,30.11,WNW,292,0.0,2.0,91,0.02,RA,OVC,0.04,WeatherDisplay:10.37,2013-07-11 14:15:00,
2013-07-11 10:30:00,74.3,71.5,30.11,WNW,292,0.0,0.0,91,0.50,RA,OVC,0.54,WeatherDisplay:10.37,2013-07-11 14:30:00,
2013-07-11 10:45:00,73.0,69.9,30.11,WNW,292,0.0,0.0,90,0.84,RA,OVC,1.38,WeatherDisplay:10.37,2013-07-11 14:45:00,
2013-07-11 11:00:00,72.3,69.2,30.11,WNW,292,0.0,0.0,90,0.24,RA,OVC,1.63,WeatherDisplay:10.37,2013-07-11 15:00:00,
2013-07-11 11:15:00,72.0,69.2,30.11,WNW,292,0.0,0.0,91,0.64,RA,OVC,2.27,WeatherDisplay:10.37,2013-07-11 15:15:00,
2013-07-11 11:30:00,72.0,69.5,30.11,WNW,290,1.0,2.0,92,0.53,RA,OVC,2.80,WeatherDisplay:10.37,2013-07-11 15:30:00,
2013-07-11 11:45:00,72.0,69.2,30.11,WNW,296,1.0,2.0,91,0.22,RA,OVC,3.02,WeatherDisplay:10.37,2013-07-11 15:45:00,
2013-07-11 12:00:00,72.0,69.2,30.11,NW,308,2.0,2.0,91,0.22,RA,OVC,3.24,WeatherDisplay:10.37,2013-07-11 16:00:00,
2013-07-11 12:15:00,72.3,69.9,30.11,WNW,292,2.0,2.0,92,0.00,OVC,OVC,3.24,WeatherDisplay:10.37,2013-07-11 16:15:00,
2013-07-11 12:30:00,72.7,70.3,30.10,WNW,292,2.0,2.0,92,0.00,OVC,OVC,3.24,WeatherDisplay:10.37,2013-07-11 16:30:00,
2013-07-11 12:45:00,73.2,70.8,30.10,WNW,292,2.0,2.0,92,0.00,OVC,OVC,3.24,WeatherDisplay:10.37,2013-07-11 16:45:00,
2013-07-11 13:00:00,74.1,72.0,30.09,WNW,292,2.0,2.0,93,0.00,OVC,OVC,3.24,WeatherDisplay:10.37,2013-07-11 17:00:00,
2013-07-11 13:15:00,74.7,72.5,30.09,WNW,292,2.0,2.0,93,0.00,BKN,OVC,3.24,WeatherDisplay:10.37,2013-07-11 17:15:00,
2013-07-11 13:45:00,75.2,73.0,30.08,WSW,237,0.0,1.0,93,0.00,BKN,OVC,3.24,WeatherDisplay:10.37,2013-07-11 17:45:00,
2013-07-11 14:00:00,75.4,73.2,30.07,ESE,116,2.0,2.0,93,0.00,BKN,OVC,3.24,WeatherDisplay:10.37,2013-07-11 18:00:00,
2013-07-11 14:15:00,75.4,72.9,30.07,SE,137,0.0,2.0,92,0.00,BKN,OVC,3.24,WeatherDisplay:10.37,2013-07-11 18:15:00,
2013-07-11 14:30:00,75.6,73.1,30.06,SW,223,0.0,3.0,92,0.00,BKN,OVC,3.24,WeatherDisplay:10.37,2013-07-11 18:30:00,
2013-07-11 14:45:00,75.6,73.2,30.06,East,84,0.0,0.0,92,0.00,BKN,OVC,3.24,WeatherDisplay:10.37,2013-07-11 18:45:00,
2013-07-11 15:00:00,75.9,73.4,30.05,ESE,112,0.0,0.0,92,0.00,BKN,OVC,3.24,WeatherDisplay:10.37,2013-07-11 19:00:00,
2013-07-11 15:15:00,76.0,73.5,30.05,South,178,0.0,2.0,92,0.00,BKN,OVC,3.24,WeatherDisplay:10.37,2013-07-11 19:15:00,
2013-07-11 16:00:00,76.4,73.6,30.05,SE,129,0.0,3.0,91,0.00,BKN,OVC,3.24,WeatherDisplay:10.37,2013-07-11 20:00:00,
2013-07-11 16:15:00,76.3,73.5,30.04,SW,226,0.0,2.0,91,0.00,OVC,OVC,3.24,WeatherDisplay:10.37,2013-07-11 20:15:00,
2013-07-11 16:30:00,76.5,73.6,30.04,South,183,0.0,1.0,91,0.00,OVC,OVC,3.24,WeatherDisplay:10.37,2013-07-11 20:30:00,
2013-07-11 16:45:00,76.6,73.5,30.03,SE,133,1.0,5.0,90,0.00,OVC,OVC,3.24,WeatherDisplay:10.37,2013-07-11 20:45:00,
2013-07-11 17:00:00,76.6,73.5,30.03,SE,126,1.0,2.0,90,0.00,OVC,OVC,3.24,WeatherDisplay:10.37,2013-07-11 21:00:00,
2013-07-11 17:15:00,76.6,73.2,30.04,SE,129,1.0,3.0,89,0.00,BKN,OVC,3.24,WeatherDisplay:10.37,2013-07-11 21:15:00,
2013-07-11 17:30:00,76.6,73.2,30.03,SE,141,0.0,4.0,89,0.00,BKN,OVC,3.24,WeatherDisplay:10.37,2013-07-11 21:30:00,
2013-07-11 17:45:00,76.5,73.0,30.03,SE,125,1.0,5.0,89,0.00,BKN,OVC,3.24,WeatherDisplay:10.37,2013-07-11 21:45:00,
2013-07-11 18:00:00,76.3,72.8,30.02,SE,125,1.0,3.0,89,0.00,BKN,OVC,3.24,WeatherDisplay:10.37,2013-07-11 22:00:00,
2013-07-11 18:15:00,76.6,73.2,30.03,ESE,120,2.0,5.0,89,0.00,BKN,OVC,3.24,WeatherDisplay:10.37,2013-07-11 22:15:00,
2013-07-11 18:30:00,76.6,73.2,30.02,ESE,111,2.0,6.0,89,0.00,BKN,OVC,3.24,WeatherDisplay:10.37,2013-07-11 22:30:00,
2013-07-11 18:45:00,76.6,73.2,30.03,ESE,111,0.0,3.0,89,0.00,BKN,OVC,3.24,WeatherDisplay:10.37,2013-07-11 22:45:00,
2013-07-11 19:00:00,76.6,73.2,30.03,SE,126,1.0,3.0,89,0.00,BKN,OVC,3.24,WeatherDisplay:10.37,2013-07-11 23:00:00,
2013-07-11 19:15:00,76.4,72.9,30.03,ESE,102,2.0,4.0,89,0.00,OVC,OVC,3.24,WeatherDisplay:10.37,2013-07-11 23:15:00,
2013-07-11 19:30:00,76.1,72.9,30.03,East,94,2.0,3.0,90,0.00,OVC,OVC,3.24,WeatherDisplay:10.37,2013-07-11 23:30:00,
2013-07-11 19:45:00,75.9,72.8,30.03,East,93,1.0,3.0,90,0.00,OVC,OVC,3.24,WeatherDisplay:10.37,2013-07-11 23:45:00,
2013-07-11 20:00:00,75.7,72.6,30.02,ESE,107,3.0,4.0,90,0.00,OVC,OVC,3.24,WeatherDisplay:10.37,2013-07-12 00:00:00,
2013-07-11 20:15:00,75.6,72.4,30.02,ESE,105,2.0,4.0,90,0.00,OVC,OVC,3.24,WeatherDisplay:10.37,2013-07-12 00:15:00,
2013-07-11 20:45:00,75.2,72.1,30.03,SE,133,0.0,3.0,90,0.00,OVC,OVC,3.24,WeatherDisplay:10.37,2013-07-12 00:45:00,
2013-07-11 21:00:00,74.8,71.7,30.03,East,90,0.0,2.0,90,0.00,OVC,OVC,3.24,WeatherDisplay:10.37,2013-07-12 01:00:00,
2013-07-11 21:15:00,74.7,71.6,30.04,East,94,0.0,1.0,90,0.00,OVC,OVC,3.24,WeatherDisplay:10.37,2013-07-12 01:15:00,
2013-07-11 21:30:00,74.7,71.9,30.03,ESE,121,0.0,3.0,91,0.00,OVC,OVC,3.24,WeatherDisplay:10.37,2013-07-12 01:30:00,
2013-07-11 21:45:00,74.5,71.7,30.03,ESE,105,2.0,4.0,91,0.02,RA,OVC,3.26,WeatherDisplay:10.37,2013-07-12 01:45:00,
2013-07-11 22:00:00,74.3,71.5,30.03,East,90,1.0,2.0,91,0.01,RA,OVC,3.27,WeatherDisplay:10.37,2013-07-12 02:00:00,
2013-07-11 22:15:00,74.2,71.1,30.02,East,90,1.0,1.0,90,0.00,-RA,OVC,3.27,WeatherDisplay:10.37,2013-07-12 02:15:00,
2013-07-11 22:30:00,73.8,70.6,30.03,East,90,1.0,1.0,90,0.00,-RA,OVC,3.27,WeatherDisplay:10.37,2013-07-12 02:30:00,
2013-07-11 23:00:00,73.4,70.6,30.04,East,90,1.0,1.0,91,0.03,-RA,OVC,3.31,WeatherDisplay:10.37,2013-07-12 03:00:00,
2013-07-11 23:15:00,72.8,69.4,30.04,East,90,1.0,1.0,89,0.02,-RA,OVC,3.34,WeatherDisplay:10.37,2013-07-12 03:15:00,
2013-07-11 23:30:00,71.9,68.1,30.03,East,90,1.0,1.0,88,0.03,-RA,OVC,3.36,WeatherDisplay:10.37,2013-07-12 03:30:00,
2013-07-11 23:45:00,71.1,67.7,30.05,East,90,1.0,1.0,89,0.00,-RA,OVC,3.36,WeatherDisplay:10.37,2013-07-12 03:45:00,